sensor_id;sensor_type;location;lat;lon;timestamp;pressure;altitude;pressure_sealevel;temperature;humidity
29371;BME280;16357;52.188;7.838;2022-10-16T00:01:17;100356.03;;;14.91;67.59
29371;BME280;16357;52.188;7.838;2022-10-16T00:03:45;100366.00;;;14.91;67.71
29371;BME280;16357;52.188;7.838;2022-10-16T00:06:12;100358.91;;;14.90;67.83
29371;BME280;16357;52.188;7.838;2022-10-16T00:08:39;100367.22;;;14.88;67.60
29371;BME280;16357;52.188;7.838;2022-10-16T00:11:11;100368.88;;;14.89;67.72
29371;BME280;16357;52.188;7.838;2022-10-16T00:13:40;100365.53;;;14.87;67.82
29371;BME280;16357;52.188;7.838;2022-10-16T00:16:07;100360.50;;;14.84;67.82
29371;BME280;16357;52.188;7.838;2022-10-16T00:18:35;100367.78;;;14.84;68.32
29371;BME280;16357;52.188;7.838;2022-10-16T00:21:08;100367.59;;;14.85;67.87
29371;BME280;16357;52.188;7.838;2022-10-16T00:23:35;100366.13;;;14.83;68.26
29371;BME280;16357;52.188;7.838;2022-10-16T00:26:05;100367.97;;;14.82;68.24
29371;BME280;16357;52.188;7.838;2022-10-16T00:28:33;100365.47;;;14.81;68.20
29371;BME280;16357;52.188;7.838;2022-10-16T00:31:08;100361.94;;;14.80;67.87
29371;BME280;16357;52.188;7.838;2022-10-16T00:33:36;100364.19;;;14.77;67.98
29371;BME280;16357;52.188;7.838;2022-10-16T00:36:04;100362.53;;;14.76;68.07
29371;BME280;16357;52.188;7.838;2022-10-16T00:38:31;100362.09;;;14.72;67.97
29371;BME280;16357;52.188;7.838;2022-10-16T00:40:57;100362.44;;;14.69;68.20
29371;BME280;16357;52.188;7.838;2022-10-16T00:46:05;100369.06;;;14.66;67.96
29371;BME280;16357;52.188;7.838;2022-10-16T00:48:35;100367.97;;;14.61;68.39
29371;BME280;16357;52.188;7.838;2022-10-16T00:51:01;100377.28;;;14.58;68.46
29371;BME280;16357;52.188;7.838;2022-10-16T00:53:28;100374.16;;;14.55;68.65
29371;BME280;16357;52.188;7.838;2022-10-16T00:55:55;100374.31;;;14.53;69.14
29371;BME280;16357;52.188;7.838;2022-10-16T00:58:21;100369.28;;;14.50;69.05
29371;BME280;16357;52.188;7.838;2022-10-16T01:00:47;100369.50;;;14.48;69.06
29371;BME280;16357;52.188;7.838;2022-10-16T01:03:27;100359.69;;;14.47;68.97
29371;BME280;16357;52.188;7.838;2022-10-16T01:06:06;100364.44;;;14.45;68.80
29371;BME280;16357;52.188;7.838;2022-10-16T01:12:01;100357.78;;;14.41;69.04
29371;BME280;16357;52.188;7.838;2022-10-16T01:14:48;100356.31;;;14.39;69.28
29371;BME280;16357;52.188;7.838;2022-10-16T01:17:23;100362.91;;;14.36;69.19
29371;BME280;16357;52.188;7.838;2022-10-16T01:20:04;100364.13;;;14.34;69.10
29371;BME280;16357;52.188;7.838;2022-10-16T01:22:39;100359.94;;;14.31;69.27
29371;BME280;16357;52.188;7.838;2022-10-16T01:25:17;100362.81;;;14.30;69.11
29371;BME280;16357;52.188;7.838;2022-10-16T01:27:47;100369.47;;;14.27;69.87
29371;BME280;16357;52.188;7.838;2022-10-16T01:30:33;100365.91;;;14.26;69.70
29371;BME280;16357;52.188;7.838;2022-10-16T01:33:08;100368.81;;;14.25;69.95
29371;BME280;16357;52.188;7.838;2022-10-16T01:35:39;100371.69;;;14.23;69.68
29371;BME280;16357;52.188;7.838;2022-10-16T01:38:20;100369.38;;;14.20;69.76
29371;BME280;16357;52.188;7.838;2022-10-16T01:40:51;100368.53;;;14.20;69.85
29371;BME280;16357;52.188;7.838;2022-10-16T01:43:27;100371.41;;;14.18;69.68
29371;BME280;16357;52.188;7.838;2022-10-16T01:45:55;100375.16;;;14.17;70.29
29371;BME280;16357;52.188;7.838;2022-10-16T01:48:22;100373.66;;;14.15;70.71
29371;BME280;16357;52.188;7.838;2022-10-16T01:51:10;100379.06;;;14.15;69.90
29371;BME280;16357;52.188;7.838;2022-10-16T01:53:39;100373.00;;;14.13;70.21
29371;BME280;16357;52.188;7.838;2022-10-16T01:56:09;100372.19;;;14.12;70.13
29371;BME280;16357;52.188;7.838;2022-10-16T01:58:43;100382.13;;;14.12;70.08
29371;BME280;16357;52.188;7.838;2022-10-16T02:01:13;100384.19;;;14.10;70.22
29371;BME280;16357;52.188;7.838;2022-10-16T02:03:46;100375.44;;;14.08;70.49
29371;BME280;16357;52.188;7.838;2022-10-16T02:06:16;100368.38;;;14.07;70.45
29371;BME280;16357;52.188;7.838;2022-10-16T02:08:43;100365.03;;;14.04;70.58
29371;BME280;16357;52.188;7.838;2022-10-16T02:11:10;100369.59;;;14.04;70.70
29371;BME280;16357;52.188;7.838;2022-10-16T02:13:55;100366.91;;;14.04;70.46
29371;BME280;16357;52.188;7.838;2022-10-16T02:16:36;100372.47;;;14.02;70.44
29371;BME280;16357;52.188;7.838;2022-10-16T02:19:04;100374.50;;;14.00;70.46
29371;BME280;16357;52.188;7.838;2022-10-16T02:21:56;100379.91;;;14.00;70.57
29371;BME280;16357;52.188;7.838;2022-10-16T02:24:43;100371.19;;;13.98;70.24
29371;BME280;16357;52.188;7.838;2022-10-16T02:27:25;100368.66;;;13.97;70.38
29371;BME280;16357;52.188;7.838;2022-10-16T02:29:57;100377.78;;;13.96;70.56
29371;BME280;16357;52.188;7.838;2022-10-16T02:32:30;100372.56;;;13.94;70.35
29371;BME280;16357;52.188;7.838;2022-10-16T02:34:58;100375.66;;;13.91;70.22
29371;BME280;16357;52.188;7.838;2022-10-16T02:37:26;100378.34;;;13.91;70.82
29371;BME280;16357;52.188;7.838;2022-10-16T02:39:56;100377.69;;;13.89;70.63
29371;BME280;16357;52.188;7.838;2022-10-16T02:42:28;100378.50;;;13.90;70.46
29371;BME280;16357;52.188;7.838;2022-10-16T02:44:55;100375.19;;;13.88;70.70
29371;BME280;16357;52.188;7.838;2022-10-16T02:47:22;100367.28;;;13.86;70.64
29371;BME280;16357;52.188;7.838;2022-10-16T02:49:48;100367.28;;;13.86;70.82
29371;BME280;16357;52.188;7.838;2022-10-16T02:52:14;100376.41;;;13.85;70.90
29371;BME280;16357;52.188;7.838;2022-10-16T02:54:41;100362.06;;;13.84;71.12
29371;BME280;16357;52.188;7.838;2022-10-16T02:57:07;100368.31;;;13.85;71.58
29371;BME280;16357;52.188;7.838;2022-10-16T02:59:33;100366.44;;;13.86;71.15
29371;BME280;16357;52.188;7.838;2022-10-16T03:02:00;100382.44;;;13.87;71.50
29371;BME280;16357;52.188;7.838;2022-10-16T03:04:26;100376.19;;;13.87;71.52
29371;BME280;16357;52.188;7.838;2022-10-16T03:06:53;100381.41;;;13.88;71.70
29371;BME280;16357;52.188;7.838;2022-10-16T03:09:19;100384.78;;;13.90;71.82
29371;BME280;16357;52.188;7.838;2022-10-16T03:11:45;100388.09;;;13.92;72.04
29371;BME280;16357;52.188;7.838;2022-10-16T03:14:12;100388.75;;;13.94;72.03
29371;BME280;16357;52.188;7.838;2022-10-16T03:16:39;100388.38;;;13.97;71.91
29371;BME280;16357;52.188;7.838;2022-10-16T03:19:05;100373.88;;;13.98;72.04
29371;BME280;16357;52.188;7.838;2022-10-16T03:21:32;100380.75;;;14.01;72.23
29371;BME280;16357;52.188;7.838;2022-10-16T03:23:58;100380.38;;;14.04;72.46
29371;BME280;16357;52.188;7.838;2022-10-16T03:26:24;100385.56;;;14.05;72.52
29371;BME280;16357;52.188;7.838;2022-10-16T03:28:51;100387.06;;;14.08;72.48
29371;BME280;16357;52.188;7.838;2022-10-16T03:31:17;100390.22;;;14.12;72.71
29371;BME280;16357;52.188;7.838;2022-10-16T03:33:44;100383.63;;;14.14;72.57
29371;BME280;16357;52.188;7.838;2022-10-16T03:36:10;100396.72;;;14.17;72.47
29371;BME280;16357;52.188;7.838;2022-10-16T03:38:36;100403.63;;;14.20;72.39
29371;BME280;16357;52.188;7.838;2022-10-16T03:41:03;100393.47;;;14.22;72.83
29371;BME280;16357;52.188;7.838;2022-10-16T03:43:30;100405.56;;;14.26;72.75
29371;BME280;16357;52.188;7.838;2022-10-16T03:45:56;100393.53;;;14.28;72.73
29371;BME280;16357;52.188;7.838;2022-10-16T03:48:22;100386.94;;;14.31;72.77
29371;BME280;16357;52.188;7.838;2022-10-16T03:50:49;100387.38;;;14.35;72.71
29371;BME280;16357;52.188;7.838;2022-10-16T03:53:16;100395.28;;;14.36;72.76
29371;BME280;16357;52.188;7.838;2022-10-16T03:55:43;100382.47;;;14.38;72.44
29371;BME280;16357;52.188;7.838;2022-10-16T03:58:11;100387.84;;;14.38;72.46
29371;BME280;16357;52.188;7.838;2022-10-16T04:00:44;100390.81;;;14.43;71.95
29371;BME280;16357;52.188;7.838;2022-10-16T04:03:10;100383.72;;;14.42;72.45
29371;BME280;16357;52.188;7.838;2022-10-16T04:05:37;100388.13;;;14.43;72.18
29371;BME280;16357;52.188;7.838;2022-10-16T04:08:04;100389.78;;;14.44;72.24
29371;BME280;16357;52.188;7.838;2022-10-16T04:10:30;100387.09;;;14.44;72.07
29371;BME280;16357;52.188;7.838;2022-10-16T04:12:56;100398.72;;;14.45;71.87
29371;BME280;16357;52.188;7.838;2022-10-16T04:15:23;100389.78;;;14.44;72.04
29371;BME280;16357;52.188;7.838;2022-10-16T04:17:50;100396.00;;;14.45;72.02
29371;BME280;16357;52.188;7.838;2022-10-16T04:20:17;100399.75;;;14.44;72.06
29371;BME280;16357;52.188;7.838;2022-10-16T04:22:44;100404.94;;;14.45;72.55
29371;BME280;16357;52.188;7.838;2022-10-16T04:25:10;100407.63;;;14.45;71.88
29371;BME280;16357;52.188;7.838;2022-10-16T04:27:38;100420.31;;;14.45;72.10
29371;BME280;16357;52.188;7.838;2022-10-16T04:30:10;100422.81;;;14.46;71.71
29371;BME280;16357;52.188;7.838;2022-10-16T04:32:37;100433.63;;;14.46;72.03
29371;BME280;16357;52.188;7.838;2022-10-16T04:35:03;100427.38;;;14.46;71.76
29371;BME280;16357;52.188;7.838;2022-10-16T04:37:30;100417.44;;;14.46;72.04
29371;BME280;16357;52.188;7.838;2022-10-16T04:39:56;100412.03;;;14.46;71.84
29371;BME280;16357;52.188;7.838;2022-10-16T04:42:23;100417.44;;;14.46;71.98
29371;BME280;16357;52.188;7.838;2022-10-16T04:44:49;100415.56;;;14.47;71.92
29371;BME280;16357;52.188;7.838;2022-10-16T04:47:15;100425.31;;;14.48;71.60
29371;BME280;16357;52.188;7.838;2022-10-16T04:49:42;100434.44;;;14.47;71.65
29371;BME280;16357;52.188;7.838;2022-10-16T04:52:08;100429.88;;;14.47;71.63
29371;BME280;16357;52.188;7.838;2022-10-16T04:54:35;100433.63;;;14.46;71.45
29371;BME280;16357;52.188;7.838;2022-10-16T04:57:02;100437.31;;;14.45;71.59
29371;BME280;16357;52.188;7.838;2022-10-16T04:59:28;100443.59;;;14.46;71.53
29371;BME280;16357;52.188;7.838;2022-10-16T05:01:55;100440.03;;;14.45;71.50
29371;BME280;16357;52.188;7.838;2022-10-16T05:04:21;100431.09;;;14.45;71.34
29371;BME280;16357;52.188;7.838;2022-10-16T05:06:48;100443.75;;;14.44;71.70
29371;BME280;16357;52.188;7.838;2022-10-16T05:09:14;100437.31;;;14.45;71.53
29371;BME280;16357;52.188;7.838;2022-10-16T05:11:41;100434.84;;;14.44;71.61
29371;BME280;16357;52.188;7.838;2022-10-16T05:14:07;100439.41;;;14.43;71.50
29371;BME280;16357;52.188;7.838;2022-10-16T05:16:33;100436.88;;;14.42;71.49
29371;BME280;16357;52.188;7.838;2022-10-16T05:19:00;100436.03;;;14.41;71.53
29371;BME280;16357;52.188;7.838;2022-10-16T05:21:46;100450.38;;;14.42;71.37
29371;BME280;16357;52.188;7.838;2022-10-16T05:24:13;100438.75;;;14.41;71.50
29371;BME280;16357;52.188;7.838;2022-10-16T05:26:39;100445.19;;;14.40;71.76
29371;BME280;16357;52.188;7.838;2022-10-16T05:29:05;100450.56;;;14.40;71.69
29371;BME280;16357;52.188;7.838;2022-10-16T05:31:32;100453.06;;;14.42;71.68
29371;BME280;16357;52.188;7.838;2022-10-16T05:33:59;100450.56;;;14.40;71.90
29371;BME280;16357;52.188;7.838;2022-10-16T05:36:26;100455.13;;;14.40;71.80
29371;BME280;16357;52.188;7.838;2022-10-16T05:38:52;100457.81;;;14.40;71.79
29371;BME280;16357;52.188;7.838;2022-10-16T05:41:19;100464.06;;;14.40;71.73
29371;BME280;16357;52.188;7.838;2022-10-16T05:43:48;100467.59;;;14.41;71.73
29371;BME280;16357;52.188;7.838;2022-10-16T05:46:15;100463.22;;;14.40;71.67
29371;BME280;16357;52.188;7.838;2022-10-16T05:48:41;100472.16;;;14.40;71.97
29371;BME280;16357;52.188;7.838;2022-10-16T05:51:10;100477.56;;;14.40;71.71
29371;BME280;16357;52.188;7.838;2022-10-16T05:53:38;100483.78;;;14.41;71.97
29371;BME280;16357;52.188;7.838;2022-10-16T05:56:06;100475.50;;;14.42;71.74
29371;BME280;16357;52.188;7.838;2022-10-16T05:58:36;100484.63;;;14.41;71.87
29371;BME280;16357;52.188;7.838;2022-10-16T06:01:04;100486.28;;;14.42;71.89
29371;BME280;16357;52.188;7.838;2022-10-16T06:03:31;100484.63;;;14.41;71.85
29371;BME280;16357;52.188;7.838;2022-10-16T06:05:57;100495.03;;;14.44;71.83
29371;BME280;16357;52.188;7.838;2022-10-16T06:08:23;100496.91;;;14.44;71.75
29371;BME280;16357;52.188;7.838;2022-10-16T06:11:08;100505.00;;;14.44;71.80
29371;BME280;16357;52.188;7.838;2022-10-16T06:13:35;100501.47;;;14.43;71.76
29371;BME280;16357;52.188;7.838;2022-10-16T06:16:02;100512.28;;;14.43;71.72
29371;BME280;16357;52.188;7.838;2022-10-16T06:18:30;100508.53;;;14.44;72.00
29371;BME280;16357;52.188;7.838;2022-10-16T06:20:57;100516.63;;;14.44;71.87
29371;BME280;16357;52.188;7.838;2022-10-16T06:23:25;100513.94;;;14.44;71.93
29371;BME280;16357;52.188;7.838;2022-10-16T06:25:51;100529.09;;;14.45;71.72
29371;BME280;16357;52.188;7.838;2022-10-16T06:28:18;100514.59;;;14.46;71.84
29371;BME280;16357;52.188;7.838;2022-10-16T06:30:44;100528.09;;;14.46;71.83
29371;BME280;16357;52.188;7.838;2022-10-16T06:33:12;100529.75;;;14.47;71.92
29371;BME280;16357;52.188;7.838;2022-10-16T06:35:38;100533.28;;;14.48;72.00
29371;BME280;16357;52.188;7.838;2022-10-16T06:38:04;100532.28;;;14.49;71.96
29371;BME280;16357;52.188;7.838;2022-10-16T06:40:31;100531.06;;;14.52;72.06
29371;BME280;16357;52.188;7.838;2022-10-16T06:42:57;100546.25;;;14.53;72.24
29371;BME280;16357;52.188;7.838;2022-10-16T06:45:24;100546.91;;;14.55;72.04
29371;BME280;16357;52.188;7.838;2022-10-16T06:47:50;100550.28;;;14.57;72.19
29371;BME280;16357;52.188;7.838;2022-10-16T06:50:34;100552.59;;;14.60;71.80
29371;BME280;16357;52.188;7.838;2022-10-16T06:53:00;100557.59;;;14.63;71.62
29371;BME280;16357;52.188;7.838;2022-10-16T06:55:26;100562.63;;;14.66;71.99
29371;BME280;16357;52.188;7.838;2022-10-16T06:57:53;100563.28;;;14.68;71.85
29371;BME280;16357;52.188;7.838;2022-10-16T07:00:19;100562.25;;;14.69;71.98
29371;BME280;16357;52.188;7.838;2022-10-16T07:02:45;100569.13;;;14.71;71.86
29371;BME280;16357;52.188;7.838;2022-10-16T07:05:12;100577.06;;;14.73;71.70
29371;BME280;16357;52.188;7.838;2022-10-16T07:07:38;100579.38;;;14.76;71.53
29371;BME280;16357;52.188;7.838;2022-10-16T07:10:05;100592.72;;;14.78;71.45
29371;BME280;16357;52.188;7.838;2022-10-16T07:12:31;100596.25;;;14.78;71.51
29371;BME280;16357;52.188;7.838;2022-10-16T07:14:58;100594.19;;;14.80;71.39
29371;BME280;16357;52.188;7.838;2022-10-16T07:17:24;100603.97;;;14.81;71.55
29371;BME280;16357;52.188;7.838;2022-10-16T07:19:50;100609.19;;;14.83;71.68
29371;BME280;16357;52.188;7.838;2022-10-16T07:22:19;100621.66;;;14.84;71.23
29371;BME280;16357;52.188;7.838;2022-10-16T07:24:45;100631.44;;;14.85;71.36
29371;BME280;16357;52.188;7.838;2022-10-16T07:27:17;100632.28;;;14.85;70.93
29371;BME280;16357;52.188;7.838;2022-10-16T07:29:44;100639.34;;;14.86;71.04
29371;BME280;16357;52.188;7.838;2022-10-16T07:32:10;100641.88;;;14.88;71.31
29371;BME280;16357;52.188;7.838;2022-10-16T07:34:36;100652.47;;;14.89;71.22
29371;BME280;16357;52.188;7.838;2022-10-16T07:37:03;100658.53;;;14.91;71.69
29371;BME280;16357;52.188;7.838;2022-10-16T07:39:29;100662.56;;;14.96;71.71
29371;BME280;16357;52.188;7.838;2022-10-16T07:41:55;100668.22;;;15.01;71.58
29371;BME280;16357;52.188;7.838;2022-10-16T07:44:22;100667.88;;;15.04;71.87
29371;BME280;16357;52.188;7.838;2022-10-16T07:46:48;100675.22;;;15.10;71.95
29371;BME280;16357;52.188;7.838;2022-10-16T07:49:15;100678.19;;;15.15;72.03
29371;BME280;16357;52.188;7.838;2022-10-16T07:51:41;100679.13;;;15.22;72.14
29371;BME280;16357;52.188;7.838;2022-10-16T07:54:09;100676.47;;;15.29;72.11
29371;BME280;16357;52.188;7.838;2022-10-16T07:56:35;100682.81;;;15.36;72.19
29371;BME280;16357;52.188;7.838;2022-10-16T07:59:08;100685.41;;;15.44;72.27
29371;BME280;16357;52.188;7.838;2022-10-16T08:01:34;100695.28;;;15.52;72.21
29371;BME280;16357;52.188;7.838;2022-10-16T08:04:01;100690.59;;;15.61;72.30
29371;BME280;16357;52.188;7.838;2022-10-16T08:06:27;100689.63;;;15.68;71.88
29371;BME280;16357;52.188;7.838;2022-10-16T08:08:55;100694.94;;;15.76;72.06
29371;BME280;16357;52.188;7.838;2022-10-16T08:11:22;100693.81;;;15.86;71.88
29371;BME280;16357;52.188;7.838;2022-10-16T08:13:49;100698.06;;;15.95;71.74
29371;BME280;16357;52.188;7.838;2022-10-16T08:16:15;100698.97;;;16.02;71.82
29371;BME280;16357;52.188;7.838;2022-10-16T08:18:43;100704.91;;;16.12;71.69
29371;BME280;16357;52.188;7.838;2022-10-16T08:21:15;100707.28;;;16.22;71.84
29371;BME280;16357;52.188;7.838;2022-10-16T08:23:46;100711.34;;;16.33;71.79
29371;BME280;16357;52.188;7.838;2022-10-16T08:26:16;100712.69;;;16.43;71.39
29371;BME280;16357;52.188;7.838;2022-10-16T08:28:43;100709.81;;;16.52;71.31
29371;BME280;16357;52.188;7.838;2022-10-16T08:31:14;100716.34;;;16.64;71.01
29371;BME280;16357;52.188;7.838;2022-10-16T08:33:43;100717.06;;;16.73;70.89
29371;BME280;16357;52.188;7.838;2022-10-16T08:36:11;100710.69;;;16.80;70.44
29371;BME280;16357;52.188;7.838;2022-10-16T08:38:38;100715.97;;;16.88;69.43
29371;BME280;16357;52.188;7.838;2022-10-16T08:41:27;100716.44;;;16.99;69.65
29371;BME280;16357;52.188;7.838;2022-10-16T08:49:16;100728.63;;;17.16;69.20
29371;BME280;16357;52.188;7.838;2022-10-16T08:51:43;100731.56;;;17.21;68.81
29371;BME280;16357;52.188;7.838;2022-10-16T08:56:45;100740.00;;;17.33;68.72
29371;BME280;16357;52.188;7.838;2022-10-16T08:59:13;100730.00;;;17.40;68.23
29371;BME280;16357;52.188;7.838;2022-10-16T09:01:44;100737.34;;;17.46;68.00
29371;BME280;16357;52.188;7.838;2022-10-16T09:15:02;100751.66;;;17.75;66.90
29371;BME280;16357;52.188;7.838;2022-10-16T09:20:29;100757.97;;;17.89;66.33
29371;BME280;16357;52.188;7.838;2022-10-16T09:25:32;100759.06;;;18.01;66.33
29371;BME280;16357;52.188;7.838;2022-10-16T09:27:59;100756.34;;;18.08;65.78
29371;BME280;16357;52.188;7.838;2022-10-16T09:30:27;100750.97;;;18.14;65.80
29371;BME280;16357;52.188;7.838;2022-10-16T09:32:57;100753.66;;;18.21;65.59
29371;BME280;16357;52.188;7.838;2022-10-16T09:35:33;100750.75;;;18.29;65.62
29371;BME280;16357;52.188;7.838;2022-10-16T09:38:01;100762.47;;;18.36;64.96
29371;BME280;16357;52.188;7.838;2022-10-16T09:40:36;100774.19;;;18.43;64.51
29371;BME280;16357;52.188;7.838;2022-10-16T09:43:36;100773.97;;;18.52;64.46
29371;BME280;16357;52.188;7.838;2022-10-16T09:46:07;100772.94;;;18.59;64.13
29371;BME280;16357;52.188;7.838;2022-10-16T09:48:38;100787.16;;;18.68;64.17
29371;BME280;16357;52.188;7.838;2022-10-16T09:51:13;100780.28;;;18.79;64.52
29371;BME280;16357;52.188;7.838;2022-10-16T09:53:46;100789.25;;;18.93;64.39
29371;BME280;16357;52.188;7.838;2022-10-16T09:56:24;100805.16;;;19.09;64.21
29371;BME280;16357;52.188;7.838;2022-10-16T09:58:57;100801.16;;;19.25;63.88
29371;BME280;16357;52.188;7.838;2022-10-16T10:01:56;100810.53;;;19.42;62.73
29371;BME280;16357;52.188;7.838;2022-10-16T10:04:23;100815.31;;;19.53;61.36
29371;BME280;16357;52.188;7.838;2022-10-16T10:06:52;100815.94;;;19.62;61.04
29371;BME280;16357;52.188;7.838;2022-10-16T10:14:26;100799.56;;;19.76;60.92
29371;BME280;16357;52.188;7.838;2022-10-16T10:17:33;100804.59;;;19.79;60.31
29371;BME280;16357;52.188;7.838;2022-10-16T10:20:15;100801.66;;;19.80;60.24
29371;BME280;16357;52.188;7.838;2022-10-16T10:22:47;100804.38;;;19.80;59.91
29371;BME280;16357;52.188;7.838;2022-10-16T10:28:07;100825.28;;;19.86;58.87
29371;BME280;16357;52.188;7.838;2022-10-16T10:33:44;100822.53;;;19.93;59.59
29371;BME280;16357;52.188;7.838;2022-10-16T10:36:35;100825.44;;;19.98;58.87
29371;BME280;16357;52.188;7.838;2022-10-16T10:39:29;100822.06;;;20.03;59.22
29371;BME280;16357;52.188;7.838;2022-10-16T10:44:57;100817.81;;;20.13;58.05
29371;BME280;16357;52.188;7.838;2022-10-16T10:47:56;100820.53;;;20.20;57.76
29371;BME280;16357;52.188;7.838;2022-10-16T10:50:43;100833.06;;;20.28;57.88
29371;BME280;16357;52.188;7.838;2022-10-16T10:56:08;100839.03;;;20.43;57.15
29371;BME280;16357;52.188;7.838;2022-10-16T10:59:07;100831.44;;;20.52;57.24
29371;BME280;16357;52.188;7.838;2022-10-16T11:01:54;100830.13;;;20.61;56.91
29371;BME280;16357;52.188;7.838;2022-10-16T11:07:25;100827.09;;;20.76;55.27
29371;BME280;16357;52.188;7.838;2022-10-16T11:09:58;100824.16;;;20.77;54.92
29371;BME280;16357;52.188;7.838;2022-10-16T11:12:39;100826.66;;;20.79;55.00
29371;BME280;16357;52.188;7.838;2022-10-16T11:17:53;100827.47;;;20.79;55.13
29371;BME280;16357;52.188;7.838;2022-10-16T11:20:24;100827.03;;;20.82;54.81
29371;BME280;16357;52.188;7.838;2022-10-16T11:23:10;100835.22;;;20.82;54.51
29371;BME280;16357;52.188;7.838;2022-10-16T11:25:40;100839.00;;;20.81;53.58
29371;BME280;16357;52.188;7.838;2022-10-16T11:28:29;100841.34;;;20.78;54.08
29371;BME280;16357;52.188;7.838;2022-10-16T11:31:11;100841.19;;;20.73;53.79
29371;BME280;16357;52.188;7.838;2022-10-16T11:33:44;100846.47;;;20.68;53.90
29371;BME280;16357;52.188;7.838;2022-10-16T11:44:20;100851.72;;;20.63;53.76
29371;BME280;16357;52.188;7.838;2022-10-16T11:50:23;100847.28;;;20.68;54.52
29371;BME280;16357;52.188;7.838;2022-10-16T11:53:03;100851.84;;;20.74;54.44
29371;BME280;16357;52.188;7.838;2022-10-16T11:55:35;100853.72;;;20.80;54.24
29371;BME280;16357;52.188;7.838;2022-10-16T11:58:22;100858.06;;;20.88;54.16
29371;BME280;16357;52.188;7.838;2022-10-16T12:07:08;100867.50;;;21.11;53.71
29371;BME280;16357;52.188;7.838;2022-10-16T12:09:39;100872.50;;;21.14;52.75
29371;BME280;16357;52.188;7.838;2022-10-16T12:15:19;100883.59;;;21.19;52.06
29371;BME280;16357;52.188;7.838;2022-10-16T12:18:00;100876.69;;;21.16;51.48
29371;BME280;16357;52.188;7.838;2022-10-16T12:20:31;100881.78;;;21.13;51.78
29371;BME280;16357;52.188;7.838;2022-10-16T12:23:04;100878.88;;;21.08;51.56
29371;BME280;16357;52.188;7.838;2022-10-16T12:25:33;100872.88;;;20.99;51.30
29371;BME280;16357;52.188;7.838;2022-10-16T12:28:19;100869.16;;;20.93;51.88
29371;BME280;16357;52.188;7.838;2022-10-16T12:30:54;100866.84;;;20.90;51.82
29371;BME280;16357;52.188;7.838;2022-10-16T12:33:35;100870.63;;;20.89;52.35
29371;BME280;16357;52.188;7.838;2022-10-16T12:36:15;100873.97;;;20.91;52.18
29371;BME280;16357;52.188;7.838;2022-10-16T12:38:46;100882.78;;;20.93;52.07
29371;BME280;16357;52.188;7.838;2022-10-16T12:41:26;100880.19;;;20.98;52.32
29371;BME280;16357;52.188;7.838;2022-10-16T12:43:53;100879.78;;;21.01;51.44
29371;BME280;16357;52.188;7.838;2022-10-16T12:51:42;100898.94;;;21.20;51.88
29371;BME280;16357;52.188;7.838;2022-10-16T12:54:15;100895.31;;;21.26;51.82
29371;BME280;16357;52.188;7.838;2022-10-16T12:59:51;100896.47;;;21.37;51.16
29371;BME280;16357;52.188;7.838;2022-10-16T13:05:30;100898.31;;;21.43;51.20
29371;BME280;16357;52.188;7.838;2022-10-16T13:08:28;100896.19;;;21.45;51.01
29371;BME280;16357;52.188;7.838;2022-10-16T13:16:48;100919.19;;;21.56;51.31
29371;BME280;16357;52.188;7.838;2022-10-16T13:25:13;100921.34;;;21.72;50.27
29371;BME280;16357;52.188;7.838;2022-10-16T13:27:55;100920.91;;;21.75;49.60
29371;BME280;16357;52.188;7.838;2022-10-16T13:30:27;100918.19;;;21.75;49.47
29371;BME280;16357;52.188;7.838;2022-10-16T13:33:04;100925.75;;;21.73;49.41
29371;BME280;16357;52.188;7.838;2022-10-16T13:35:34;100917.78;;;21.72;49.15
29371;BME280;16357;52.188;7.838;2022-10-16T13:40:31;100928.31;;;21.68;49.13
29371;BME280;16357;52.188;7.838;2022-10-16T13:42:59;100934.88;;;21.67;48.88
29371;BME280;16357;52.188;7.838;2022-10-16T13:45:26;100928.78;;;21.65;48.90
29371;BME280;16357;52.188;7.838;2022-10-16T13:48:08;100929.81;;;21.64;49.59
29371;BME280;16357;52.188;7.838;2022-10-16T13:50:35;100934.09;;;21.60;49.00
29371;BME280;16357;52.188;7.838;2022-10-16T13:53:06;100929.66;;;21.59;49.48
29371;BME280;16357;52.188;7.838;2022-10-16T13:55:33;100938.31;;;21.56;49.16
29371;BME280;16357;52.188;7.838;2022-10-16T13:58:13;100928.47;;;21.55;49.38
29371;BME280;16357;52.188;7.838;2022-10-16T14:00:41;100933.91;;;21.55;48.63
29371;BME280;16357;52.188;7.838;2022-10-16T14:03:19;100936.66;;;21.55;48.96
29371;BME280;16357;52.188;7.838;2022-10-16T14:05:51;100938.31;;;21.56;49.25
29371;BME280;16357;52.188;7.838;2022-10-16T14:08:18;100937.47;;;21.55;49.38
29371;BME280;16357;52.188;7.838;2022-10-16T14:10:50;100930.13;;;21.56;49.29
29371;BME280;16357;52.188;7.838;2022-10-16T14:13:20;100937.84;;;21.59;48.94
29371;BME280;16357;52.188;7.838;2022-10-16T14:15:51;100926.09;;;21.58;48.90
29371;BME280;16357;52.188;7.838;2022-10-16T14:18:21;100931.56;;;21.58;48.85
29371;BME280;16357;52.188;7.838;2022-10-16T14:20:49;100932.41;;;21.59;48.52
29371;BME280;16357;52.188;7.838;2022-10-16T14:23:28;100938.47;;;21.61;48.59
29371;BME280;16357;52.188;7.838;2022-10-16T14:28:36;100942.28;;;21.60;48.44
29371;BME280;16357;52.188;7.838;2022-10-16T14:33:46;100958.03;;;21.58;48.42
29371;BME280;16357;52.188;7.838;2022-10-16T14:36:14;100944.84;;;21.55;48.63
29371;BME280;16357;52.188;7.838;2022-10-16T14:41:25;100946.34;;;21.51;48.00
29371;BME280;16357;52.188;7.838;2022-10-16T14:43:54;100945.75;;;21.48;48.52
29371;BME280;16357;52.188;7.838;2022-10-16T14:46:28;100947.84;;;21.46;48.71
29371;BME280;16357;52.188;7.838;2022-10-16T14:49:03;100948.91;;;21.45;48.71
29371;BME280;16357;52.188;7.838;2022-10-16T14:51:30;100958.38;;;21.43;48.32
29371;BME280;16357;52.188;7.838;2022-10-16T14:53:57;100955.88;;;21.41;47.99
29371;BME280;16357;52.188;7.838;2022-10-16T14:56:29;100952.53;;;21.39;48.47